Terminal Aerodrome Forecast
Issued by NWS Wilmington, OH

Home | Current Version | Previous Version | Text Only | Print | Product List | Glossary On
Versions: 1 2 3 4 5 6 7 8 9 10 11 12 13 14 15 16 17 18 19 20 21 22 23 24 25 26
000
FTUS41 KILN 271346 AAA
TAFCVG
TAF AMD
KCVG 271346Z 2714/2818 23005KT P6SM VCSH SCT050 OVC120
     FM271900 24007KT P6SM VCTS OVC060CB
     FM272300 25006KT 5SM -SHRA BR OVC035
     FM280400 26004KT P6SM VCSH OVC040
     FM280600 24003KT P6SM OVC035
     FM280800 VRB03KT P6SM OVC009
     FM281500 36006KT P6SM OVC015=

USA.gov is the U.S. government's official web portal to all federal, state and local government web resources and services.